Time;durP1;ratioP1;P1;durP2;ratioP2;P2;SDS_P1;SDS_P2;PMS_P1;PMS_P2;Temp;Humidity;BMP_temperature;BMP_pressure;BME280_temperature;BME280_humidity;BME280_pressure;Samples;Min_cycle;Max_cycle;Signal;HPM_P1;HPM_P2
2021/04/25 00:00:11;;;;;;;4.75;1.77;;;24.90;55.70;;;;;;5003114;28;20037;-80
2021/04/25 00:02:40;;;;;;;4.25;1.80;;;25.40;54.10;;;;;;5009530;28;20037;-80
2021/04/25 00:05:10;;;;;;;4.00;2.58;;;25.50;52.00;;;;;;5008744;28;20034;-81
2021/04/25 00:07:39;;;;;;;2.90;1.70;;;25.90;53.60;;;;;;5007366;28;20054;-79
2021/04/25 00:10:10;;;;;;;2.75;1.92;;;26.40;52.30;;;;;;5006292;28;20480;-80
2021/04/25 00:12:42;;;;;;;5.43;2.03;;;26.70;51.40;;;;;;5008103;28;20038;-81
2021/04/25 00:15:19;;;;;;;6.65;1.77;;;26.80;51.30;;;;;;5008631;28;20129;-80
2021/04/25 00:17:46;;;;;;;4.75;2.00;;;26.70;51.60;;;;;;5004171;28;20121;-80
2021/04/25 00:20:16;;;;;;;3.15;1.50;;;26.70;52.10;;;;;;5009214;28;20080;-80
2021/04/25 00:22:45;;;;;;;4.30;1.58;;;27.00;52.70;;;;;;5009146;28;20382;-81
2021/04/25 00:25:14;;;;;;;2.92;1.52;;;27.30;50.20;;;;;;5011402;28;20108;-81
2021/04/25 00:27:42;;;;;;;5.00;2.03;;;27.50;48.60;;;;;;5005848;28;20080;-80
2021/04/25 00:30:16;;;;;;;4.78;2.38;;;27.60;49.60;;;;;;5009527;28;20493;-79
2021/04/25 00:32:44;;;;;;;2.70;1.83;;;27.80;46.90;;;;;;5024357;28;20125;-80
2021/04/25 00:35:16;;;;;;;5.38;1.70;;;27.80;45.60;;;;;;5008318;28;20053;-81
2021/04/25 00:37:44;;;;;;;4.47;1.48;;;28.10;47.10;;;;;;5007244;28;20022;-80
2021/04/25 00:40:14;;;;;;;2.97;1.27;;;28.30;46.30;;;;;;5011528;28;20108;-81
2021/04/25 00:42:42;;;;;;;3.80;1.20;;;28.50;47.40;;;;;;5013648;28;20157;-80
2021/04/25 00:45:17;;;;;;;3.65;1.70;;;28.50;45.90;;;;;;5010556;28;20484;-81
2021/04/25 00:47:47;;;;;;;3.78;1.73;;;28.50;48.50;;;;;;5006189;28;20396;-79
2021/04/25 00:50:19;;;;;;;3.30;1.30;;;28.30;45.00;;;;;;5007903;28;20473;-79
2021/04/25 00:52:48;;;;;;;3.10;1.50;;;28.30;44.20;;;;;;5009540;28;20172;-81
2021/04/25 00:55:18;;;;;;;3.00;1.60;;;28.20;44.50;;;;;;5015076;28;20151;-82
2021/04/25 00:57:46;;;;;;;9.20;2.50;;;28.60;44.80;;;;;;5011015;28;20060;-79
2021/04/25 01:00:15;;;;;;;4.43;1.20;;;28.70;46.20;;;;;;5011845;28;20029;-78
2021/04/25 01:02:42;;;;;;;2.70;1.38;;;28.70;47.50;;;;;;5013621;28;20026;-79
2021/04/25 01:05:12;;;;;;;4.38;1.13;;;29.00;45.90;;;;;;5010615;28;20053;-79
2021/04/25 01:07:40;;;;;;;6.28;1.70;;;29.40;45.30;;;;;;5007920;28;20030;-78
2021/04/25 01:10:10;;;;;;;5.40;1.45;;;29.40;44.00;;;;;;5007013;28;20673;-80
2021/04/25 01:12:39;;;;;;;4.45;1.52;;;29.30;44.00;;;;;;5009303;28;20034;-78
2021/04/25 01:15:09;;;;;;;4.00;1.83;;;29.50;44.50;;;;;;5008844;28;20030;-78
2021/04/25 01:17:43;;;;;;;1.83;1.00;;;29.30;44.90;;;;;;5007424;28;20038;-80
2021/04/25 01:20:13;;;;;;;5.53;1.13;;;28.70;46.00;;;;;;5007411;28;20420;-79
2021/04/25 01:22:41;;;;;;;3.30;1.10;;;29.00;45.20;;;;;;5004809;28;20033;-78
2021/04/25 01:25:10;;;;;;;1.88;1.13;;;29.20;45.20;;;;;;5006747;28;20033;-79
2021/04/25 01:27:38;;;;;;;3.63;1.10;;;29.50;43.20;;;;;;5006709;28;20045;-79
2021/04/25 01:30:10;;;;;;;6.40;1.25;;;29.40;43.80;;;;;;5006416;28;20053;-78
2021/04/25 01:32:40;;;;;;;3.30;1.50;;;28.70;42.30;;;;;;5021427;28;20639;-78
2021/04/25 01:35:09;;;;;;;1.85;0.93;;;28.60;45.10;;;;;;5008772;28;20492;-80
2021/04/25 01:37:36;;;;;;;3.97;1.42;;;28.60;44.20;;;;;;5008074;28;20025;-79
2021/04/25 01:40:09;;;;;;;2.67;1.10;;;28.60;44.40;;;;;;5006176;28;20484;-78
2021/04/25 01:42:36;;;;;;;3.10;1.40;;;29.10;46.60;;;;;;5007556;28;20034;-79
2021/04/25 01:45:05;;;;;;;3.22;1.50;;;29.40;43.50;;;;;;5007923;28;20025;-79
2021/04/25 01:47:33;;;;;;;3.42;1.15;;;29.60;44.70;;;;;;5011658;28;20033;-80
2021/04/25 01:50:00;;;;;;;6.20;1.63;;;29.60;42.10;;;;;;5007472;28;20045;-79
2021/04/25 01:52:28;;;;;;;3.17;1.33;;;29.40;43.10;;;;;;5009571;28;20026;-79
2021/04/25 01:54:55;;;;;;;3.40;1.05;;;29.40;42.60;;;;;;5007239;28;20545;-72
2021/04/25 01:57:22;;;;;;;5.45;1.45;;;29.90;44.10;;;;;;5008150;28;20468;-73
2021/04/25 01:59:50;;;;;;;3.25;1.55;;;29.70;40.50;;;;;;5006850;28;20038;-72
2021/04/25 02:02:17;;;;;;;2.60;1.30;;;29.10;42.30;;;;;;5006819;28;20025;-72
2021/04/25 02:04:45;;;;;;;3.92;1.45;;;29.10;43.30;;;;;;5005739;28;20036;-72
2021/04/25 02:07:12;;;;;;;3.13;1.50;;;29.10;42.40;;;;;;5004058;28;20069;-73
2021/04/25 02:09:39;;;;;;;4.38;1.08;;;29.30;40.90;;;;;;5009591;28;20410;-75
2021/04/25 02:12:07;;;;;;;2.60;1.15;;;29.50;42.30;;;;;;5009722;28;20388;-75
2021/04/25 02:14:35;;;;;;;3.65;0.93;;;29.00;42.60;;;;;;5005358;28;20033;-74
2021/04/25 02:17:02;;;;;;;3.67;0.90;;;27.70;44.10;;;;;;5007556;28;20056;-74
2021/04/25 02:19:30;;;;;;;5.00;1.50;;;26.70;43.50;;;;;;5004585;28;20030;-79
2021/04/25 02:21:57;;;;;;;3.03;0.93;;;26.00;47.20;;;;;;5004733;28;20376;-81
2021/04/25 02:24:25;;;;;;;3.55;0.98;;;25.60;48.90;;;;;;5012385;28;20088;-81
2021/04/25 02:26:53;;;;;;;1.85;1.00;;;25.30;48.40;;;;;;5005018;28;20495;-80
2021/04/25 02:29:20;;;;;;;1.50;0.73;;;25.00;50.00;;;;;;5004580;28;20492;-75
2021/04/25 02:31:47;;;;;;;1.65;1.10;;;24.50;50.40;;;;;;5006143;28;20124;-80
2021/04/25 02:34:15;;;;;;;3.22;1.10;;;24.10;53.30;;;;;;5005450;28;20033;-78
2021/04/25 02:36:43;;;;;;;2.63;0.77;;;23.70;52.50;;;;;;5006418;28;20017;-75
2021/04/25 02:39:10;;;;;;;2.97;1.33;;;23.50;53.00;;;;;;5004120;28;20104;-78
2021/04/25 02:41:37;;;;;;;3.10;0.95;;;24.70;50.40;;;;;;5006437;28;20018;-78
2021/04/25 02:44:05;;;;;;;2.20;1.02;;;26.00;48.10;;;;;;5005127;28;20385;-78
2021/04/25 02:46:33;;;;;;;4.20;1.35;;;26.10;46.50;;;;;;5006662;28;20084;-81
2021/04/25 02:49:00;;;;;;;3.83;1.25;;;26.60;45.10;;;;;;5007722;28;20026;-79
2021/04/25 02:51:27;;;;;;;4.72;1.30;;;26.20;45.00;;;;;;5006092;28;20500;-82
2021/04/25 02:53:55;;;;;;;2.70;0.95;;;26.90;45.00;;;;;;5004517;28;20429;-78
2021/04/25 02:56:23;;;;;;;4.60;1.13;;;27.40;43.20;;;;;;5006276;28;20049;-80
2021/04/25 02:58:52;;;;;;;3.00;1.13;;;27.70;40.10;;;;;;5007120;28;20034;-76
2021/04/25 03:01:20;;;;;;;4.18;0.90;;;26.90;40.10;;;;;;5005445;28;21220;-80
2021/04/25 03:03:48;;;;;;;3.53;0.98;;;27.00;43.50;;;;;;5013186;28;20022;-80
2021/04/25 03:06:15;;;;;;;2.15;1.20;;;27.30;41.80;;;;;;5007363;28;20079;-80
2021/04/25 03:08:43;;;;;;;3.60;0.88;;;27.50;40.50;;;;;;5004956;28;20092;-83
2021/04/25 03:11:10;;;;;;;1.45;0.80;;;27.40;40.80;;;;;;5005442;28;20053;-84
2021/04/25 03:13:37;;;;;;;2.25;1.00;;;28.00;39.70;;;;;;5006220;28;20029;-80
2021/04/25 03:16:05;;;;;;;4.38;1.10;;;27.30;39.50;;;;;;5003539;28;20060;-80
2021/04/25 03:18:33;;;;;;;2.50;1.00;;;26.90;42.10;;;;;;5006231;28;20080;-73
2021/04/25 03:21:00;;;;;;;3.47;0.90;;;26.50;41.50;;;;;;5007623;28;20041;-79
2021/04/25 03:23:27;;;;;;;2.03;0.88;;;26.50;42.30;;;;;;5006701;28;20076;-78
2021/04/25 03:25:55;;;;;;;3.28;0.77;;;26.70;40.90;;;;;;5005948;28;20044;-77
2021/04/25 03:28:22;;;;;;;2.10;1.08;;;27.00;43.90;;;;;;5005577;28;20547;-78
2021/04/25 03:30:51;;;;;;;2.25;1.08;;;27.00;40.90;;;;;;5006885;28;20042;-80
2021/04/25 03:33:18;;;;;;;2.63;1.10;;;26.60;41.50;;;;;;5014892;28;20028;-75
2021/04/25 03:35:45;;;;;;;1.52;1.00;;;26.90;41.50;;;;;;5008305;28;20171;-73
2021/04/25 03:38:13;;;;;;;1.80;1.05;;;26.70;40.90;;;;;;5008239;28;20037;-77
2021/04/25 03:40:40;;;;;;;2.45;0.60;;;26.80;42.00;;;;;;5005999;28;20033;-74
2021/04/25 03:43:08;;;;;;;4.57;0.93;;;26.30;41.60;;;;;;5008210;28;20110;-79
2021/04/25 03:45:35;;;;;;;2.15;0.80;;;25.70;41.30;;;;;;5008752;28;20480;-83
2021/04/25 03:48:03;;;;;;;4.28;1.17;;;25.50;44.60;;;;;;5007504;28;20041;-79
2021/04/25 03:50:30;;;;;;;2.75;1.38;;;25.00;42.60;;;;;;5006483;28;20102;-81
2021/04/25 03:52:58;;;;;;;2.92;0.90;;;24.60;43.40;;;;;;5008072;28;20028;-86
2021/04/25 03:55:26;;;;;;;3.60;1.05;;;24.70;44.30;;;;;;5010359;28;20519;-86
2021/04/25 03:57:54;;;;;;;7.85;1.48;;;25.10;44.40;;;;;;5019517;28;20029;-77
2021/04/25 04:00:21;;;;;;;5.18;0.82;;;25.20;43.00;;;;;;5005259;28;20025;-75
2021/04/25 04:02:49;;;;;;;7.10;1.23;;;25.10;44.50;;;;;;5005444;28;20038;-79
2021/04/25 04:05:17;;;;;;;6.43;2.10;;;25.20;42.90;;;;;;5006830;28;20049;-79
2021/04/25 04:07:45;;;;;;;2.95;0.80;;;25.20;42.00;;;;;;5004843;28;20109;-80
2021/04/25 04:10:13;;;;;;;2.70;0.88;;;24.70;43.70;;;;;;5010259;28;20034;-76
2021/04/25 04:12:41;;;;;;;3.80;0.98;;;24.90;44.10;;;;;;5004037;28;20377;-76
2021/04/25 04:15:09;;;;;;;2.80;1.20;;;24.90;43.20;;;;;;5003313;28;20087;-80
2021/04/25 04:17:36;;;;;;;4.43;1.50;;;25.00;43.70;;;;;;5003849;28;20038;-77
2021/04/25 04:20:05;;;;;;;1.88;0.90;;;25.20;42.60;;;;;;5006239;28;20124;-77
2021/04/25 04:22:33;;;;;;;5.15;1.15;;;25.10;42.60;;;;;;5001449;28;20543;-78
2021/04/25 04:25:01;;;;;;;4.30;1.10;;;25.20;42.60;;;;;;5002153;28;20034;-79
2021/04/25 04:27:28;;;;;;;8.32;1.15;;;25.00;43.60;;;;;;5006049;28;20022;-80
2021/04/25 04:29:55;;;;;;;1.52;0.70;;;25.00;43.90;;;;;;5008226;28;20109;-75
2021/04/25 04:32:23;;;;;;;3.85;1.00;;;24.70;43.50;;;;;;5006938;28;20025;-78
2021/04/25 04:34:50;;;;;;;5.70;0.90;;;24.50;44.00;;;;;;5011833;28;21085;-85
2021/04/25 04:37:18;;;;;;;1.60;0.82;;;24.50;43.90;;;;;;5013676;28;20056;-86
2021/04/25 04:39:45;;;;;;;3.65;0.90;;;24.50;44.10;;;;;;5015004;28;20014;-77
2021/04/25 04:42:13;;;;;;;1.23;0.65;;;24.60;44.40;;;;;;5015139;28;20103;-79
2021/04/25 04:44:40;;;;;;;4.15;0.90;;;24.30;43.20;;;;;;5009830;28;20026;-82
2021/04/25 04:47:08;;;;;;;3.40;1.10;;;24.30;44.90;;;;;;5007372;28;20026;-81
2021/04/25 04:49:35;;;;;;;2.53;0.88;;;24.40;44.30;;;;;;5009191;28;20125;-83
2021/04/25 04:52:03;;;;;;;3.35;1.00;;;24.50;44.80;;;;;;5009215;28;20045;-79
2021/04/25 04:54:30;;;;;;;3.55;0.82;;;24.00;44.20;;;;;;5009540;28;20029;-83
2021/04/25 04:56:58;;;;;;;4.22;1.65;;;23.80;44.70;;;;;;5011402;28;20038;-81
2021/04/25 04:59:25;;;;;;;3.97;0.73;;;23.60;44.60;;;;;;5014706;28;20476;-79
2021/04/25 05:01:52;;;;;;;4.28;0.85;;;23.30;45.10;;;;;;5009281;28;20395;-81
2021/04/25 05:04:20;;;;;;;5.07;1.20;;;23.00;46.70;;;;;;5009616;28;20656;-83
2021/04/25 05:06:47;;;;;;;2.50;1.15;;;22.60;47.20;;;;;;5009320;28;20033;-78
2021/04/25 05:09:15;;;;;;;1.80;1.00;;;22.40;48.10;;;;;;5009307;28;20392;-76
2021/04/25 05:11:42;;;;;;;3.13;0.60;;;22.50;49.00;;;;;;5011710;28;20045;-78
2021/04/25 05:14:10;;;;;;;3.80;1.27;;;22.80;48.40;;;;;;5006339;28;20064;-81
2021/04/25 05:16:37;;;;;;;2.90;1.00;;;23.00;48.00;;;;;;5009468;28;20056;-80
2021/04/25 05:19:04;;;;;;;4.05;1.00;;;23.10;47.80;;;;;;5010135;28;20033;-79
2021/04/25 05:21:32;;;;;;;3.50;0.98;;;23.20;48.00;;;;;;5007009;28;20030;-76
2021/04/25 05:23:59;;;;;;;1.20;0.80;;;23.20;47.50;;;;;;5007222;28;20022;-84
2021/04/25 05:26:27;;;;;;;2.60;0.82;;;23.20;48.20;;;;;;5006744;28;20022;-76
2021/04/25 05:28:55;;;;;;;3.88;1.20;;;23.40;48.40;;;;;;5005517;28;20041;-81
2021/04/25 05:31:23;;;;;;;4.00;1.40;;;23.60;47.10;;;;;;5011821;28;20034;-81
2021/04/25 05:33:51;;;;;;;2.63;1.77;;;23.50;48.20;;;;;;5010705;28;20052;-77
2021/04/25 05:36:18;;;;;;;1.73;1.00;;;23.70;47.70;;;;;;5005032;28;21041;-81
2021/04/25 05:38:46;;;;;;;3.63;1.00;;;23.80;48.50;;;;;;5005330;28;20061;-82
2021/04/25 05:41:14;;;;;;;3.40;0.95;;;23.80;47.70;;;;;;5008971;28;20041;-80
2021/04/25 05:43:45;;;;;;;6.93;1.63;;;23.80;55.30;;;;;;5007054;28;20034;-80
2021/04/25 05:46:15;;;;;;;8.25;1.30;;;23.80;58.00;;;;;;5005904;28;20081;-79
2021/04/25 05:48:47;;;;;;;2.90;0.95;;;23.70;60.50;;;;;;5007435;28;20033;-79
2021/04/25 05:51:14;;;;;;;2.15;1.20;;;23.70;60.80;;;;;;5003396;28;20037;-79
2021/04/25 05:53:42;;;;;;;4.43;0.90;;;23.50;60.60;;;;;;5007419;28;20185;-78
2021/04/25 05:56:10;;;;;;;4.82;1.17;;;23.30;61.70;;;;;;4997960;28;20120;-78
2021/04/25 05:58:37;;;;;;;5.80;1.10;;;23.20;62.30;;;;;;5007298;28;21622;-78
2021/04/25 06:01:05;;;;;;;2.20;0.80;;;22.80;63.00;;;;;;5003811;28;20045;-79
2021/04/25 06:03:33;;;;;;;2.60;1.10;;;22.60;63.90;;;;;;5004293;28;20133;-80
2021/04/25 06:06:00;;;;;;;4.55;1.25;;;22.60;64.20;;;;;;5000839;28;20132;-77
2021/04/25 06:08:28;;;;;;;4.60;1.40;;;22.60;64.60;;;;;;4999013;28;20504;-78
2021/04/25 06:10:58;;;;;;;3.78;1.13;;;22.60;64.60;;;;;;5005391;28;20570;-76
2021/04/25 06:13:30;;;;;;;2.22;0.93;;;22.60;63.90;;;;;;4998307;28;20100;-79
2021/04/25 06:15:57;;;;;;;3.15;1.13;;;22.50;64.00;;;;;;4998807;28;20371;-78
2021/04/25 06:18:28;;;;;;;4.45;1.30;;;22.50;64.20;;;;;;4998158;28;20037;-80
2021/04/25 06:20:56;;;;;;;2.50;0.98;;;22.40;65.00;;;;;;5001558;28;20037;-80
2021/04/25 06:23:23;;;;;;;8.07;1.52;;;22.30;66.90;;;;;;5007363;28;22130;-80
2021/04/25 06:25:51;;;;;;;4.80;0.95;;;22.00;68.80;;;;;;5008685;28;20040;-77
2021/04/25 06:28:18;;;;;;;5.97;1.20;;;21.80;70.80;;;;;;5009226;28;20030;-77
2021/04/25 06:30:46;;;;;;;3.42;0.80;;;21.70;71.40;;;;;;5012169;28;20040;-75
2021/04/25 06:33:13;;;;;;;4.38;1.15;;;21.60;72.50;;;;;;5005023;28;20026;-77
2021/04/25 06:35:41;;;;;;;2.88;0.77;;;21.50;72.90;;;;;;5008649;28;20080;-79
2021/04/25 06:38:08;;;;;;;2.92;1.15;;;21.40;73.60;;;;;;5004679;28;20021;-77
2021/04/25 06:40:36;;;;;;;3.88;0.70;;;21.20;74.00;;;;;;5004156;28;20041;-77
2021/04/25 06:43:05;;;;;;;2.88;0.93;;;21.00;75.00;;;;;;5022524;28;20034;-78
2021/04/25 06:45:32;;;;;;;4.35;0.95;;;20.90;76.00;;;;;;5007594;28;20021;-78
2021/04/25 06:48:00;;;;;;;2.35;0.85;;;20.80;76.50;;;;;;5006380;28;20030;-78
2021/04/25 06:50:28;;;;;;;2.85;1.10;;;20.70;77.80;;;;;;5006104;28;20038;-78
2021/04/25 06:52:55;;;;;;;5.90;1.42;;;20.70;77.90;;;;;;5006962;28;20029;-78
2021/04/25 06:55:24;;;;;;;8.10;2.25;;;20.60;78.30;;;;;;5005689;28;20030;-80
2021/04/25 06:57:53;;;;;;;3.22;0.90;;;20.60;78.90;;;;;;5006574;28;20041;-78
2021/04/25 07:00:22;;;;;;;4.82;1.05;;;20.50;79.10;;;;;;5006633;28;20520;-81
2021/04/25 07:02:52;;;;;;;2.60;1.00;;;20.50;79.70;;;;;;5006917;28;20096;-78
2021/04/25 07:05:19;;;;;;;4.45;1.13;;;20.40;80.10;;;;;;5010764;28;20022;-78
2021/04/25 07:07:46;;;;;;;3.13;0.90;;;20.30;80.50;;;;;;5010651;28;20030;-75
2021/04/25 07:10:14;;;;;;;5.47;1.20;;;20.10;80.90;;;;;;5005573;28;20030;-74
2021/04/25 07:12:42;;;;;;;3.20;1.30;;;20.00;81.50;;;;;;5009650;28;20030;-75
2021/04/25 07:15:10;;;;;;;4.63;1.38;;;19.90;82.20;;;;;;5008591;28;20088;-77
2021/04/25 07:17:38;;;;;;;4.22;0.77;;;19.80;82.60;;;;;;5008843;28;20022;-76
2021/04/25 07:20:10;;;;;;;3.85;1.08;;;19.70;83.10;;;;;;5010021;28;20037;-75
2021/04/25 07:22:38;;;;;;;6.82;1.42;;;19.60;83.40;;;;;;5008573;28;20055;-76
2021/04/25 07:25:08;;;;;;;4.80;1.25;;;19.50;84.60;;;;;;5005799;28;20095;-75
2021/04/25 07:27:37;;;;;;;1.98;1.17;;;19.30;84.30;;;;;;5005709;28;20480;-76
2021/04/25 07:30:06;;;;;;;4.43;0.93;;;19.20;84.70;;;;;;5007777;28;20034;-76
2021/04/25 07:32:34;;;;;;;6.38;1.38;;;19.10;85.10;;;;;;5007814;28;20068;-74
2021/04/25 07:35:01;;;;;;;3.75;1.10;;;19.10;85.40;;;;;;5007622;28;20030;-75
2021/04/25 07:37:29;;;;;;;5.95;1.58;;;19.00;85.60;;;;;;5007119;28;20040;-75
2021/04/25 07:39:56;;;;;;;5.47;1.13;;;18.90;86.00;;;;;;5009946;28;20037;-75
2021/04/25 07:42:24;;;;;;;7.40;1.30;;;18.80;86.40;;;;;;5007352;28;20515;-76
2021/04/25 07:44:54;;;;;;;5.63;1.35;;;18.80;86.60;;;;;;5009041;28;20468;-80
2021/04/25 07:47:21;;;;;;;4.53;1.00;;;18.80;86.80;;;;;;5009319;28;20511;-79
2021/04/25 07:49:49;;;;;;;3.65;1.27;;;18.70;87.10;;;;;;5005144;28;20484;-78
2021/04/25 07:52:16;;;;;;;6.70;1.55;;;18.60;87.10;;;;;;5010827;28;20041;-78
2021/04/25 07:54:43;;;;;;;8.20;1.85;;;18.60;87.30;;;;;;5010922;28;20026;-78
2021/04/25 07:57:11;;;;;;;5.15;1.10;;;18.40;87.70;;;;;;5006896;28;20030;-78
2021/04/25 07:59:38;;;;;;;5.30;1.15;;;18.40;88.10;;;;;;5006607;28;20157;-79
2021/04/25 08:02:06;;;;;;;6.13;1.65;;;18.30;88.00;;;;;;5005132;28;20203;-79
2021/04/25 08:04:33;;;;;;;5.85;1.80;;;18.20;88.20;;;;;;5009620;28;20087;-80
2021/04/25 08:07:00;;;;;;;5.47;1.42;;;18.20;88.50;;;;;;5007402;28;20127;-78
2021/04/25 08:09:28;;;;;;;5.57;2.08;;;18.10;88.40;;;;;;5007052;28;20022;-80
2021/04/25 08:11:55;;;;;;;6.43;1.10;;;18.10;88.90;;;;;;5007453;28;20034;-80
2021/04/25 08:14:23;;;;;;;3.75;1.05;;;18.00;89.10;;;;;;5007313;28;20041;-79
2021/04/25 08:16:50;;;;;;;5.43;1.70;;;18.00;89.20;;;;;;5005969;28;20050;-79
2021/04/25 08:19:18;;;;;;;3.25;1.45;;;17.90;89.40;;;;;;5009773;28;20040;-78
2021/04/25 08:21:45;;;;;;;5.25;2.08;;;17.90;89.50;;;;;;5008136;28;20030;-80
2021/04/25 08:24:13;;;;;;;4.45;1.67;;;17.90;89.70;;;;;;5010367;28;20022;-79
2021/04/25 08:26:40;;;;;;;4.15;1.25;;;17.90;89.70;;;;;;5006915;28;20033;-77
2021/04/25 08:29:08;;;;;;;6.88;1.75;;;17.80;89.70;;;;;;5003711;28;20392;-80
2021/04/25 08:31:35;;;;;;;3.22;1.38;;;17.80;90.00;;;;;;5004958;28;20049;-78
2021/04/25 08:34:03;;;;;;;3.13;1.10;;;17.70;90.10;;;;;;5009152;28;20034;-77
2021/04/25 08:36:30;;;;;;;6.88;1.38;;;17.70;90.20;;;;;;5008109;28;20030;-79
2021/04/25 08:38:57;;;;;;;5.10;2.30;;;17.70;90.20;;;;;;5006684;28;20038;-79
2021/04/25 08:41:26;;;;;;;5.80;2.15;;;17.70;90.10;;;;;;5008643;28;20033;-77
2021/04/25 08:43:53;;;;;;;7.68;2.85;;;17.60;90.10;;;;;;5008002;28;20026;-78
2021/04/25 08:46:26;;;;;;;8.02;3.15;;;17.60;90.10;;;;;;5007464;28;20033;-79
2021/04/25 08:48:54;;;;;;;12.95;3.83;;;17.60;90.10;;;;;;5003867;28;20104;-77
2021/04/25 08:51:23;;;;;;;7.53;3.05;;;17.50;90.20;;;;;;5007893;28;20041;-78
2021/04/25 08:53:51;;;;;;;4.75;2.63;;;17.50;90.30;;;;;;5006986;28;20472;-77
2021/04/25 08:56:20;;;;;;;7.90;2.53;;;17.40;90.30;;;;;;5006738;28;20045;-77
2021/04/25 08:58:50;;;;;;;7.53;2.00;;;17.40;90.40;;;;;;5007077;28;20049;-77
2021/04/25 09:01:17;;;;;;;4.00;1.80;;;17.30;90.50;;;;;;5008832;28;20117;-79
2021/04/25 09:03:45;;;;;;;4.55;1.73;;;17.30;90.50;;;;;;5007449;28;20021;-78
2021/04/25 09:06:12;;;;;;;4.72;1.42;;;17.30;90.90;;;;;;5006975;28;20029;-79
2021/04/25 09:08:56;;;;;;;4.97;1.48;;;17.30;90.60;;;;;;5009419;28;20022;-78
2021/04/25 09:11:32;;;;;;;4.53;2.03;;;17.20;90.70;;;;;;5010067;28;20038;-78
2021/04/25 09:14:23;;;;;;;5.03;1.88;;;17.10;90.70;;;;;;5006925;28;20133;-79
2021/04/25 09:16:54;;;;;;;3.95;2.25;;;17.10;90.90;;;;;;5010488;28;20097;-78
2021/04/25 09:19:25;;;;;;;6.88;1.83;;;17.10;90.90;;;;;;5012584;28;20447;-78
2021/04/25 09:22:03;;;;;;;5.13;2.78;;;17.10;91.00;;;;;;5012353;28;20026;-78
2021/04/25 09:24:32;;;;;;;5.72;3.00;;;17.00;91.10;;;;;;5022482;28;20026;-80
2021/04/25 09:27:00;;;;;;;5.07;2.03;;;17.00;91.10;;;;;;5011402;28;20041;-77
2021/04/25 09:29:46;;;;;;;11.35;2.72;;;17.00;91.20;;;;;;5013492;28;20057;-78
2021/04/25 09:32:17;;;;;;;;;;;17.00;91.40;;;;;;5011985;28;20034;-77
2021/04/25 09:34:45;;;;;;;4.35;1.83;;;16.90;91.10;;;;;;5013439;28;19910;-80
2021/04/25 09:37:21;;;;;;;8.50;2.55;;;16.90;91.10;;;;;;5011423;28;20080;-78
2021/04/25 09:40:08;;;;;;;5.00;2.45;;;16.80;91.20;;;;;;5011887;28;20033;-78
2021/04/25 09:42:54;;;;;;;5.25;3.60;;;16.80;91.30;;;;;;5008709;28;20014;-77
2021/04/25 09:45:31;;;;;;;6.65;3.58;;;16.70;91.40;;;;;;5010389;28;20479;-77
2021/04/25 09:48:01;;;;;;;10.82;4.22;;;16.70;91.40;;;;;;5006448;28;20037;-78
2021/04/25 09:50:31;;;;;;;7.15;3.67;;;16.70;91.40;;;;;;5013610;28;20029;-78
2021/04/25 09:52:59;;;;;;;4.57;2.80;;;16.70;91.50;;;;;;5011227;28;20037;-78
2021/04/25 09:55:32;;;;;;;7.82;2.60;;;16.70;91.50;;;;;;5011946;28;20022;-78
2021/04/25 09:58:08;;;;;;;4.95;2.20;;;16.60;91.50;;;;;;5011247;28;20488;-78
2021/04/25 10:00:42;;;;;;;;;;;16.60;91.60;;;;;;5011934;28;20038;-77
2021/04/25 10:03:10;;;;;;;5.25;2.00;;;16.60;91.60;;;;;;5007331;28;19913;-78
2021/04/25 10:05:39;;;;;;;3.03;2.03;;;16.50;91.70;;;;;;5005560;28;20034;-79
2021/04/25 10:08:07;;;;;;;6.85;2.50;;;16.50;91.70;;;;;;5009930;28;20484;-83
2021/04/25 10:10:35;;;;;;;5.00;2.28;;;16.40;91.70;;;;;;5009694;28;20381;-78
2021/04/25 10:13:02;;;;;;;3.38;2.60;;;16.40;91.70;;;;;;5006254;28;20038;-80
2021/04/25 10:15:29;;;;;;;8.43;5.35;;;16.30;91.70;;;;;;5006380;28;20026;-85
2021/04/25 10:17:57;;;;;;;8.18;5.22;;;16.10;92.00;;;;;;5005250;28;20034;-78
2021/04/25 10:20:25;;;;;;;6.22;3.38;;;16.10;91.90;;;;;;5009997;28;20030;-80
2021/04/25 10:22:54;;;;;;;5.97;3.72;;;16.10;91.60;;;;;;5007928;28;20539;-80
2021/04/25 10:25:35;;;;;;;8.60;2.95;;;16.00;91.70;;;;;;5008337;28;20029;-76
2021/04/25 10:28:25;;;;;;;4.93;2.30;;;16.00;91.70;;;;;;5003402;28;20377;-79
2021/04/25 10:31:17;;;;;;;6.28;2.72;;;15.90;91.80;;;;;;5002631;28;20678;-79
2021/04/25 10:33:57;;;;;;;3.38;2.40;;;15.90;91.80;;;;;;5007341;28;20041;-79
2021/04/25 10:36:45;;;;;;;4.78;2.70;;;15.80;92.00;;;;;;5008981;28;20079;-77
2021/04/25 10:39:39;;;;;;;5.93;2.50;;;15.80;92.20;;;;;;5009270;28;20084;-78
2021/04/25 10:42:24;;;;;;;6.15;3.05;;;15.70;92.20;;;;;;5011071;28;20496;-77
2021/04/25 10:47:25;;;;;;;6.15;2.95;;;15.60;92.10;;;;;;5010440;28;20080;-81
2021/04/25 10:49:59;;;;;;;7.60;3.58;;;15.60;92.30;;;;;;5011791;28;20049;-78
2021/04/25 10:52:34;;;;;;;5.05;2.95;;;15.50;92.50;;;;;;5008284;28;20463;-80
2021/04/25 10:55:20;;;;;;;5.50;3.10;;;15.50;92.40;;;;;;5008589;28;20026;-81
2021/04/25 10:57:54;;;;;;;6.00;3.20;;;15.40;92.50;;;;;;5014975;28;20034;-78
2021/04/25 11:00:34;;;;;;;7.30;3.33;;;15.50;92.50;;;;;;5013910;28;20108;-79
2021/04/25 11:03:08;;;;;;;6.88;3.40;;;15.50;92.70;;;;;;5006665;28;20419;-79
2021/04/25 11:05:39;;;;;;;4.93;3.08;;;15.50;92.70;;;;;;5008787;28;20025;-77
2021/04/25 11:08:27;;;;;;;5.68;3.05;;;15.50;92.80;;;;;;5010921;28;20084;-79
2021/04/25 11:11:37;;;;;;;3.25;2.03;;;15.50;92.80;;;;;;5007516;28;20048;-78
2021/04/25 11:14:07;;;;;;;5.07;2.60;;;15.50;93.10;;;;;;5004498;28;20045;-79
2021/04/25 11:16:36;;;;;;;13.15;2.70;;;15.50;93.10;;;;;;5010929;28;20428;-79
2021/04/25 11:19:12;;;;;;;3.75;2.20;;;15.50;93.10;;;;;;5009643;28;20385;-79
2021/04/25 11:21:49;;;;;;;3.63;2.20;;;15.60;93.20;;;;;;5003927;28;20022;-80
2021/04/25 11:24:16;;;;;;;7.13;2.15;;;15.60;93.20;;;;;;5007798;28;20042;-77
2021/04/25 11:26:48;;;;;;;4.97;2.83;;;15.70;93.10;;;;;;5006646;28;20023;-80
2021/04/25 11:29:23;;;;;;;5.22;2.17;;;15.80;93.10;;;;;;5007288;28;20041;-80
2021/04/25 11:31:56;;;;;;;7.30;2.80;;;15.90;93.10;;;;;;5006219;28;20128;-79
2021/04/25 11:34:33;;;;;;;6.18;2.40;;;15.90;93.00;;;;;;5007314;28;20053;-79
2021/04/25 11:37:23;;;;;;;5.25;3.20;;;15.80;93.10;;;;;;5006579;28;20049;-79
2021/04/25 11:39:54;;;;;;;9.95;4.72;;;15.80;92.60;;;;;;5003147;28;20053;-80
2021/04/25 11:42:39;;;;;;;6.28;3.92;;;15.80;92.10;;;;;;5009458;28;20037;-82
2021/04/25 11:45:17;;;;;;;12.30;6.80;;;15.70;92.20;;;;;;5007758;28;20036;-76
2021/04/25 11:47:58;;;;;;;7.70;5.07;;;15.80;92.10;;;;;;5008576;28;20088;-80
2021/04/25 11:50:43;;;;;;;6.68;5.55;;;15.80;92.30;;;;;;5007859;28;20054;-78
2021/04/25 11:53:29;;;;;;;9.60;4.95;;;15.80;92.40;;;;;;5009148;28;20073;-79
2021/04/25 11:55:56;;;;;;;5.90;3.80;;;15.80;92.40;;;;;;5006748;28;20033;-77
2021/04/25 11:58:25;;;;;;;5.88;3.08;;;15.90;92.70;;;;;;5009982;28;20488;-80
2021/04/25 12:00:52;;;;;;;6.95;2.65;;;15.90;92.80;;;;;;5006429;28;20038;-78
2021/04/25 12:03:21;;;;;;;4.88;2.20;;;16.00;92.90;;;;;;5005561;28;20018;-79
2021/04/25 12:05:55;;;;;;;6.28;1.70;;;16.00;93.00;;;;;;5005925;28;20057;-78
2021/04/25 12:08:23;;;;;;;4.07;1.50;;;16.10;93.10;;;;;;5003526;28;20026;-79
2021/04/25 12:10:53;;;;;;;4.00;1.60;;;16.10;93.00;;;;;;5008444;28;20373;-79
2021/04/25 12:13:22;;;;;;;2.92;1.52;;;16.10;92.80;;;;;;5008473;28;20025;-78
2021/04/25 12:15:51;;;;;;;8.65;2.63;;;16.10;92.90;;;;;;5009955;28;20069;-79
2021/04/25 12:18:29;;;;;;;12.25;7.38;;;16.10;92.90;;;;;;5012980;28;20030;-79
2021/04/25 12:21:00;;;;;;;10.30;7.10;;;15.90;92.80;;;;;;5002021;28;20137;-77
2021/04/25 12:23:29;;;;;;;10.95;6.88;;;15.70;92.60;;;;;;5008627;28;20033;-78
2021/04/25 12:25:57;;;;;;;12.13;5.85;;;15.60;92.90;;;;;;5005501;28;20040;-77
2021/04/25 12:28:45;;;;;;;12.55;5.72;;;15.50;92.80;;;;;;5008445;28;20026;-78
2021/04/25 12:31:17;;;;;;;5.63;3.58;;;15.50;93.20;;;;;;5005777;28;20041;-77
2021/04/25 12:33:45;;;;;;;5.35;2.72;;;15.50;92.70;;;;;;5007378;28;20477;-77
2021/04/25 12:36:18;;;;;;;7.30;3.03;;;15.40;92.80;;;;;;5008118;28;20108;-78
2021/04/25 12:39:07;;;;;;;4.82;3.15;;;15.30;92.90;;;;;;5009753;28;20030;-77
2021/04/25 12:41:41;;;;;;;5.43;3.10;;;15.20;92.70;;;;;;5005868;28;20034;-76
2021/04/25 12:44:09;;;;;;;5.13;2.63;;;15.10;92.80;;;;;;5005230;28;20930;-77
2021/04/25 12:46:36;;;;;;;5.85;3.15;;;15.10;92.70;;;;;;5008038;28;20105;-77
2021/04/25 12:49:07;;;;;;;4.00;2.63;;;15.00;93.10;;;;;;5008161;28;20018;-78
2021/04/25 12:51:45;;;;;;;4.18;3.03;;;15.00;92.90;;;;;;5010278;28;20431;-77
2021/04/25 12:54:20;;;;;;;8.35;2.92;;;14.90;93.20;;;;;;5009552;28;20025;-77
2021/04/25 12:56:51;;;;;;;6.07;2.75;;;14.80;93.10;;;;;;5011102;28;20076;-78
2021/04/25 12:59:33;;;;;;;4.50;2.47;;;14.80;93.20;;;;;;5013144;28;20050;-78
2021/04/25 13:02:01;;;;;;;6.25;2.83;;;14.80;93.30;;;;;;5010315;28;20034;-78
2021/04/25 13:04:33;;;;;;;5.85;3.03;;;14.70;93.20;;;;;;5012783;28;20033;-77